createdAt,value
2022-11-20T00:01:26.792Z,2.88
2022-11-20T00:03:56.674Z,1.70
2022-11-20T00:06:24.314Z,8.95
2022-11-20T00:08:51.896Z,6.78
2022-11-20T00:11:23.737Z,5.63
2022-11-20T00:13:53.385Z,1.60
2022-11-20T00:16:23.246Z,6.57
2022-11-20T00:18:50.244Z,5.32
2022-11-20T00:21:22.866Z,4.47
2022-11-20T00:23:51.151Z,10.55
2022-11-20T00:26:20.743Z,2.40
2022-11-20T00:29:05.900Z,4.28
2022-11-20T00:31:34.540Z,2.03
2022-11-20T00:34:01.493Z,6.22
2022-11-20T00:36:30.237Z,2.83
2022-11-20T00:38:58.870Z,7.28
2022-11-20T00:41:27.350Z,10.90
2022-11-20T00:43:56.001Z,2.80
2022-11-20T00:46:24.957Z,4.47
2022-11-20T00:48:52.240Z,4.22
2022-11-20T00:51:21.361Z,4.43
2022-11-20T00:53:48.309Z,2.42
2022-11-20T00:56:18.087Z,3.15
2022-11-20T00:58:47.810Z,4.82
2022-11-20T01:01:16.488Z,4.97
2022-11-20T01:03:46.597Z,4.22
2022-11-20T01:06:15.086Z,2.90
2022-11-20T01:08:42.205Z,3.58
2022-11-20T01:11:15.336Z,6.18
2022-11-20T01:13:43.112Z,3.47
2022-11-20T01:16:11.798Z,5.72
2022-11-20T01:18:40.548Z,5.43
2022-11-20T01:21:11.363Z,5.90
2022-11-20T01:23:41.388Z,3.85
2022-11-20T01:26:11.085Z,5.95
2022-11-20T01:28:39.208Z,2.53
2022-11-20T01:31:25.270Z,1.90
2022-11-20T01:33:55.346Z,2.33
2022-11-20T01:36:24.794Z,4.97
2022-11-20T01:38:58.815Z,2.95
2022-11-20T01:41:46.045Z,2.47
2022-11-20T01:44:16.147Z,7.47
2022-11-20T01:46:59.209Z,3.00
2022-11-20T01:49:30.083Z,4.47
2022-11-20T01:52:06.334Z,4.65
2022-11-20T01:54:38.530Z,8.35
2022-11-20T01:57:10.126Z,5.15
2022-11-20T01:59:42.177Z,2.97
2022-11-20T02:02:09.125Z,3.80
2022-11-20T02:04:36.843Z,6.13
2022-11-20T02:07:06.115Z,2.55
2022-11-20T02:09:33.072Z,3.80
2022-11-20T02:12:00.520Z,5.38
2022-11-20T02:14:27.698Z,3.38
2022-11-20T02:16:56.364Z,10.60
2022-11-20T02:19:32.777Z,7.97
2022-11-20T02:22:14.723Z,4.25
2022-11-20T02:24:44.969Z,2.58
2022-11-20T02:27:16.937Z,4.85
2022-11-20T02:29:56.757Z,3.90
2022-11-20T02:32:27.350Z,5.07
2022-11-20T02:34:54.477Z,2.90
2022-11-20T02:37:22.603Z,3.13
2022-11-20T02:39:52.374Z,1.95
2022-11-20T02:42:20.240Z,3.53
2022-11-20T02:44:47.491Z,1.85
2022-11-20T02:47:14.384Z,1.00
2022-11-20T02:49:41.415Z,1.83
2022-11-20T02:52:08.317Z,6.97
2022-11-20T02:54:35.295Z,1.35
2022-11-20T02:57:02.268Z,1.27
2022-11-20T02:59:31.225Z,4.70
2022-11-20T03:01:58.118Z,1.48
2022-11-20T03:04:25.027Z,4.53
2022-11-20T03:06:51.967Z,2.80
2022-11-20T03:09:19.122Z,3.13
2022-11-20T03:11:46.320Z,2.90
2022-11-20T03:14:13.367Z,3.05
2022-11-20T03:16:40.334Z,2.80
2022-11-20T03:19:07.318Z,6.30
2022-11-20T03:21:35.441Z,2.83
2022-11-20T03:24:02.915Z,9.25
2022-11-20T03:26:30.315Z,1.95
2022-11-20T03:29:02.746Z,1.88
2022-11-20T03:31:38.890Z,3.25
2022-11-20T03:34:05.938Z,3.78
2022-11-20T03:36:33.441Z,3.28
2022-11-20T03:39:01.122Z,2.92
2022-11-20T03:41:30.694Z,2.38
2022-11-20T03:44:03.542Z,1.33
2022-11-20T03:46:31.395Z,7.18
2022-11-20T03:48:59.230Z,2.38
2022-11-20T03:51:31.606Z,7.90
2022-11-20T03:54:01.643Z,1.70
2022-11-20T03:56:30.956Z,5.75
2022-11-20T03:58:58.488Z,3.17
2022-11-20T04:01:31.116Z,7.68
2022-11-20T04:03:58.765Z,4.18
2022-11-20T04:06:28.251Z,8.03
2022-11-20T04:08:56.819Z,8.60
2022-11-20T04:11:27.001Z,7.25
2022-11-20T04:13:56.584Z,3.00
2022-11-20T04:16:25.476Z,1.98
2022-11-20T04:18:55.134Z,2.78
2022-11-20T04:21:22.600Z,2.20
2022-11-20T04:23:50.718Z,4.70
2022-11-20T04:26:17.955Z,4.18
2022-11-20T04:28:44.970Z,2.53
2022-11-20T04:31:17.378Z,2.85
2022-11-20T04:33:44.528Z,1.88
2022-11-20T04:36:20.017Z,4.95
2022-11-20T04:38:48.707Z,5.03
2022-11-20T04:41:19.933Z,1.08
2022-11-20T04:43:51.533Z,4.07
2022-11-20T04:46:19.740Z,8.18
2022-11-20T04:48:47.442Z,5.85
2022-11-20T04:51:14.577Z,4.25
2022-11-20T04:53:41.606Z,2.38
2022-11-20T04:56:11.161Z,7.15
2022-11-20T04:58:38.819Z,6.38
2022-11-20T05:01:07.797Z,5.70
2022-11-20T05:03:38.533Z,5.80
2022-11-20T05:06:10.612Z,3.15
2022-11-20T05:08:37.671Z,7.93
2022-11-20T05:11:09.994Z,5.68
2022-11-20T05:13:37.428Z,8.98
2022-11-20T05:16:16.069Z,3.28
2022-11-20T05:18:43.786Z,6.18
2022-11-20T05:21:11.965Z,8.45
2022-11-20T05:23:39.653Z,4.05
2022-11-20T05:26:09.108Z,7.22
2022-11-20T05:28:36.180Z,4.47
2022-11-20T05:31:07.869Z,12.60
2022-11-20T05:33:35.926Z,3.38
2022-11-20T05:36:04.971Z,13.27
2022-11-20T05:38:32.178Z,9.48
2022-11-20T05:41:07.320Z,2.47
2022-11-20T05:43:38.865Z,7.40
2022-11-20T05:46:07.694Z,6.35
2022-11-20T05:48:36.820Z,4.53
2022-11-20T05:51:05.893Z,8.45
2022-11-20T05:53:34.777Z,6.93
2022-11-20T05:56:07.902Z,2.55
2022-11-20T05:58:38.037Z,12.88
2022-11-20T06:01:24.566Z,6.68
2022-11-20T06:03:52.421Z,4.30
2022-11-20T06:06:20.568Z,3.47
2022-11-20T06:08:48.305Z,6.10
2022-11-20T06:11:16.163Z,13.75
2022-11-20T06:13:43.605Z,4.88
2022-11-20T06:16:12.550Z,3.80
2022-11-20T06:18:39.716Z,5.75
2022-11-20T06:21:15.312Z,8.07
2022-11-20T06:23:43.082Z,5.90
2022-11-20T06:26:18.528Z,5.22
2022-11-20T06:28:45.863Z,10.02
2022-11-20T06:31:15.393Z,14.18
2022-11-20T06:33:43.744Z,6.93
2022-11-20T06:36:12.617Z,11.30
2022-11-20T06:38:40.565Z,8.95
2022-11-20T06:41:11.506Z,13.93
2022-11-20T06:43:38.949Z,6.13
2022-11-20T06:46:06.063Z,7.28
2022-11-20T06:48:33.284Z,9.40
2022-11-20T06:51:00.362Z,3.58
2022-11-20T06:53:27.272Z,5.47
2022-11-20T06:55:57.586Z,2.60
2022-11-20T06:58:27.009Z,6.38
2022-11-20T07:00:54.030Z,9.70
2022-11-20T07:03:21.018Z,9.00
2022-11-20T07:05:47.941Z,12.05
2022-11-20T07:08:14.816Z,10.05
2022-11-20T07:10:41.856Z,6.03
2022-11-20T07:13:08.809Z,3.80
2022-11-20T07:15:36.141Z,6.43
2022-11-20T07:18:03.335Z,25.20
2022-11-20T07:20:30.250Z,7.40
2022-11-20T07:22:58.260Z,6.40
2022-11-20T07:25:26.543Z,12.73
2022-11-20T07:27:53.749Z,8.13
2022-11-20T07:30:20.753Z,12.45
2022-11-20T07:32:49.136Z,14.70
2022-11-20T07:35:16.186Z,12.10
2022-11-20T07:37:43.147Z,13.68
2022-11-20T07:40:10.699Z,35.63
2022-11-20T07:42:37.703Z,15.00
2022-11-20T07:45:04.963Z,13.25
2022-11-20T07:47:37.420Z,19.95
2022-11-20T07:50:04.751Z,13.05
2022-11-20T07:52:31.789Z,9.50
2022-11-20T07:54:58.753Z,14.50
2022-11-20T07:57:28.328Z,8.30
2022-11-20T07:59:55.617Z,6.07
2022-11-20T08:02:22.688Z,11.13
2022-11-20T08:04:49.681Z,9.57
2022-11-20T08:07:16.808Z,17.98
2022-11-20T08:09:43.773Z,9.35
2022-11-20T08:12:38.048Z,11.10
2022-11-20T08:15:12.540Z,20.27
2022-11-20T08:17:40.302Z,13.57
2022-11-20T08:20:07.572Z,18.13
2022-11-20T08:22:34.531Z,8.82
2022-11-20T08:25:01.733Z,8.38
2022-11-20T08:27:28.716Z,8.25
2022-11-20T08:29:55.794Z,11.38
2022-11-20T08:32:22.908Z,17.52
2022-11-20T08:34:49.813Z,10.18
2022-11-20T08:37:16.752Z,15.00
2022-11-20T08:39:43.744Z,16.55
2022-11-20T08:42:10.813Z,7.95
2022-11-20T08:44:37.647Z,6.60
2022-11-20T08:47:04.615Z,7.03
2022-11-20T08:49:31.532Z,21.25
2022-11-20T08:51:58.549Z,10.73
2022-11-20T08:54:25.418Z,7.18
2022-11-20T08:56:52.714Z,16.35
2022-11-20T08:59:43.319Z,6.55
2022-11-20T09:02:06.858Z,21.88
2022-11-20T09:04:33.832Z,14.32
2022-11-20T09:07:01.387Z,22.67
2022-11-20T09:09:28.493Z,10.02
2022-11-20T09:11:55.588Z,14.82
2022-11-20T09:14:22.536Z,11.50
2022-11-20T09:16:49.441Z,12.35
2022-11-20T09:22:04.069Z,13.35
2022-11-20T09:24:31.180Z,15.93
2022-11-20T09:26:58.060Z,17.63
2022-11-20T09:29:25.248Z,23.02
2022-11-20T09:31:52.181Z,14.20
2022-11-20T09:34:19.089Z,11.02
2022-11-20T09:36:46.240Z,33.47
2022-11-20T09:39:13.126Z,8.95
2022-11-20T09:42:05.025Z,10.27
2022-11-20T09:44:32.178Z,14.52
2022-11-20T09:47:01.859Z,15.15
2022-11-20T09:49:50.465Z,11.68
2022-11-20T09:52:45.904Z,16.55
2022-11-20T09:55:15.746Z,18.85
2022-11-20T09:57:47.098Z,13.15
2022-11-20T10:00:16.282Z,19.25
2022-11-20T10:03:02.783Z,16.98
2022-11-20T10:05:40.368Z,18.08
2022-11-20T10:08:33.374Z,18.50
2022-11-20T10:11:09.306Z,11.15
2022-11-20T10:14:09.792Z,15.77
2022-11-20T10:16:43.120Z,16.70
2022-11-20T10:19:48.564Z,18.35
2022-11-20T10:22:47.444Z,16.33
2022-11-20T10:25:23.849Z,20.50
2022-11-20T10:28:02.870Z,15.27
2022-11-20T10:30:31.599Z,15.88
2022-11-20T10:33:18.847Z,11.45
2022-11-20T10:36:15.919Z,12.63
2022-11-20T10:38:58.384Z,21.13
2022-11-20T10:41:33.101Z,11.27
2022-11-20T10:44:40.481Z,16.27
2022-11-20T10:47:15.261Z,26.55
2022-11-20T10:49:43.826Z,18.42
2022-11-20T10:52:24.902Z,36.88
2022-11-20T10:55:20.259Z,9.40
2022-11-20T10:58:14.550Z,18.55
2022-11-20T11:00:41.883Z,14.13
2022-11-20T11:03:24.861Z,9.68
2022-11-20T11:05:59.604Z,10.23
2022-11-20T11:08:33.836Z,13.60
2022-11-20T11:11:23.505Z,12.43
2022-11-20T11:13:51.443Z,19.35
2022-11-20T11:16:27.347Z,17.17
2022-11-20T11:19:08.400Z,19.75
2022-11-20T11:21:36.941Z,23.45
2022-11-20T11:24:26.748Z,13.70
2022-11-20T11:26:58.393Z,17.35
2022-11-20T11:29:27.889Z,18.52
2022-11-20T11:32:08.646Z,17.85
2022-11-20T11:34:35.869Z,10.40
2022-11-20T11:37:04.632Z,18.30
2022-11-20T11:39:33.827Z,17.95
2022-11-20T11:42:02.079Z,15.57
2022-11-20T11:44:49.547Z,20.77
2022-11-20T11:47:22.395Z,29.42
2022-11-20T11:49:49.540Z,19.98
2022-11-20T11:52:20.673Z,9.05
2022-11-20T11:55:11.710Z,15.02
2022-11-20T11:57:51.827Z,16.33
2022-11-20T12:00:23.003Z,14.60
2022-11-20T12:03:16.543Z,21.30
2022-11-20T12:06:14.558Z,22.08
2022-11-20T12:08:53.819Z,19.60
2022-11-20T12:11:45.738Z,19.13
2022-11-20T12:14:25.162Z,15.50
2022-11-20T12:16:54.309Z,23.38
2022-11-20T12:19:21.807Z,29.33
2022-11-20T12:22:03.339Z,18.25
2022-11-20T12:24:37.669Z,23.83
2022-11-20T12:27:24.884Z,11.40
2022-11-20T12:30:03.417Z,11.95
2022-11-20T12:32:57.806Z,13.65
2022-11-20T12:35:33.497Z,8.45
2022-11-20T12:38:27.929Z,17.83
2022-11-20T12:41:07.307Z,18.00
2022-11-20T12:44:24.030Z,21.13
2022-11-20T12:47:24.827Z,12.95
2022-11-20T12:50:17.444Z,10.45
2022-11-20T12:53:15.450Z,13.25
2022-11-20T12:55:57.304Z,17.80
2022-11-20T12:58:41.140Z,12.68
2022-11-20T13:01:48.873Z,12.23
2022-11-20T15:22:47.167Z,1.75
2022-11-20T15:25:16.446Z,7.80
2022-11-20T15:27:44.430Z,3.45
2022-11-20T15:30:20.341Z,7.78
2022-11-20T15:32:48.266Z,0.60
2022-11-20T15:35:16.387Z,2.67
2022-11-20T15:37:43.758Z,1.50
2022-11-20T15:40:11.209Z,1.88
2022-11-20T15:42:38.371Z,2.00
2022-11-20T15:45:05.853Z,3.17
2022-11-20T15:47:35.702Z,11.60
2022-11-20T15:50:03.202Z,8.68
2022-11-20T15:52:40.197Z,15.10
2022-11-20T15:55:11.667Z,5.15
2022-11-20T15:57:38.562Z,6.60
2022-11-20T16:00:06.761Z,13.85
2022-11-20T16:02:37.601Z,7.57
2022-11-20T16:05:05.428Z,14.88
2022-11-20T16:07:32.346Z,15.45
2022-11-20T16:09:59.213Z,1.38
2022-11-20T16:12:44.604Z,4.25
2022-11-20T16:17:56.622Z,4.60
2022-11-20T16:20:23.456Z,2.40
2022-11-20T16:22:50.321Z,1.58
2022-11-20T16:25:17.177Z,5.97
2022-11-20T16:27:44.108Z,2.42
2022-11-20T16:30:11.451Z,5.97
2022-11-20T16:32:39.754Z,6.10
2022-11-20T16:35:08.534Z,7.18
2022-11-20T16:37:35.441Z,4.82
2022-11-20T16:40:02.292Z,1.80
2022-11-20T16:42:29.243Z,4.78
2022-11-20T16:44:56.411Z,3.50
2022-11-20T16:47:23.384Z,10.50
2022-11-20T16:49:50.239Z,6.10
2022-11-20T16:52:17.291Z,5.70
2022-11-20T16:54:44.135Z,8.23
2022-11-20T16:57:11.107Z,12.30
2022-11-20T16:59:38.087Z,7.65
2022-11-20T17:02:04.995Z,8.40
2022-11-20T17:04:32.514Z,11.80
2022-11-20T17:07:03.721Z,21.25
2022-11-20T17:09:34.881Z,9.43
2022-11-20T17:12:01.777Z,4.30
2022-11-20T17:14:28.591Z,7.82
2022-11-20T17:16:55.566Z,8.07
2022-11-20T17:19:22.460Z,8.27
2022-11-20T17:21:49.840Z,19.20
2022-11-20T17:24:16.645Z,8.18
2022-11-20T17:26:44.996Z,8.30
2022-11-20T17:29:14.352Z,9.48
2022-11-20T17:31:41.976Z,11.80
2022-11-20T17:34:12.211Z,7.40
2022-11-20T17:36:44.982Z,6.82
2022-11-20T17:39:16.854Z,7.95
2022-11-20T17:41:43.726Z,3.03
2022-11-20T17:44:12.312Z,12.65
2022-11-20T17:46:39.331Z,2.63
2022-11-20T17:49:06.387Z,9.70
2022-11-20T17:51:35.233Z,6.63
2022-11-20T17:54:04.774Z,6.60
2022-11-20T17:56:52.140Z,8.98
2022-11-20T17:59:19.573Z,6.75
2022-11-20T18:01:46.777Z,8.57
2022-11-20T18:04:14.130Z,6.68
2022-11-20T18:06:42.020Z,7.13
2022-11-20T18:09:08.988Z,4.78
2022-11-20T18:11:38.578Z,8.93
2022-11-20T18:14:29.819Z,7.72
2022-11-20T18:17:03.148Z,6.30
2022-11-20T18:19:34.243Z,6.50
2022-11-20T18:22:05.218Z,2.35
2022-11-20T18:24:33.324Z,1.88
2022-11-20T18:27:00.421Z,5.43
2022-11-20T18:29:28.304Z,2.78
2022-11-20T18:31:55.299Z,1.08
2022-11-20T18:34:22.572Z,3.70
2022-11-20T18:36:49.983Z,2.85
2022-11-20T18:39:17.186Z,4.00
2022-11-20T18:42:03.203Z,5.03
2022-11-20T18:44:50.401Z,4.75
2022-11-20T18:47:26.258Z,2.92
2022-11-20T18:49:55.259Z,5.75
2022-11-20T18:52:34.671Z,7.07
2022-11-20T18:55:02.542Z,8.35
2022-11-20T18:57:30.559Z,3.28
2022-11-20T19:00:08.027Z,10.50
2022-11-20T19:02:40.956Z,10.27
2022-11-20T19:05:10.104Z,3.55
2022-11-20T19:07:37.037Z,11.48
2022-11-20T19:10:05.246Z,8.50
2022-11-20T19:12:32.439Z,11.88
2022-11-20T19:14:59.364Z,11.73
2022-11-20T19:17:26.381Z,4.82
2022-11-20T19:19:55.063Z,14.60
2022-11-20T19:22:22.474Z,6.88
2022-11-20T19:24:49.780Z,10.98
2022-11-20T19:27:16.894Z,9.43
2022-11-20T19:29:43.934Z,15.63
2022-11-20T19:32:11.031Z,16.05
2022-11-20T19:34:37.895Z,27.77
2022-11-20T19:37:05.372Z,21.23
2022-11-20T19:39:32.321Z,15.35
2022-11-20T19:41:59.272Z,20.98
2022-11-20T19:44:26.097Z,22.10
2022-11-20T19:46:53.118Z,23.05
2022-11-20T19:49:20.189Z,23.15
2022-11-20T19:51:49.023Z,16.67
2022-11-20T19:54:16.991Z,27.65
2022-11-20T19:56:45.579Z,13.80
2022-11-20T19:59:13.163Z,13.63
2022-11-20T20:01:40.221Z,13.50
2022-11-20T20:04:07.233Z,15.05
2022-11-20T20:06:38.876Z,20.60
2022-11-20T20:09:11.967Z,14.30
2022-11-20T20:11:39.678Z,20.05
2022-11-20T20:14:10.301Z,13.48
2022-11-20T20:16:37.464Z,15.35
2022-11-20T20:19:05.568Z,16.90
2022-11-20T20:21:35.156Z,18.85
2022-11-20T20:24:02.766Z,28.17
2022-11-20T20:26:31.527Z,18.42
2022-11-20T20:28:59.185Z,17.95
2022-11-20T20:31:28.170Z,26.17
2022-11-20T20:33:55.933Z,20.33
2022-11-20T20:36:25.160Z,23.00
2022-11-20T20:38:56.535Z,16.50
2022-11-20T20:41:25.026Z,24.40
2022-11-20T20:44:11.316Z,12.20
2022-11-20T20:46:38.962Z,11.57
2022-11-20T20:49:06.034Z,8.32
2022-11-20T20:51:33.471Z,11.85
2022-11-20T21:04:11.560Z,4.88
2022-11-20T21:06:38.483Z,9.95
2022-11-20T21:09:05.311Z,7.47
2022-11-20T21:11:32.144Z,14.75
2022-11-20T21:13:59.112Z,18.60
2022-11-20T21:16:26.052Z,9.15
2022-11-20T21:18:52.993Z,11.50
2022-11-20T21:21:38.379Z,9.52
2022-11-20T21:24:05.808Z,13.98
2022-11-20T21:26:32.797Z,17.85
2022-11-20T21:28:59.771Z,10.88
2022-11-20T21:31:27.559Z,12.57
2022-11-20T21:33:56.421Z,10.95
2022-11-20T21:36:26.173Z,5.53
2022-11-20T21:38:56.825Z,2.85
2022-11-20T21:41:25.020Z,4.80
2022-11-20T21:44:23.734Z,7.65
2022-11-20T21:46:42.457Z,5.85
2022-11-20T21:49:10.270Z,5.55
2022-11-20T21:51:37.550Z,4.68
2022-11-20T21:54:04.572Z,6.78
2022-11-20T21:56:31.530Z,11.55
2022-11-20T21:58:59.023Z,1.67
2022-11-20T22:01:28.706Z,5.22
2022-11-20T22:03:58.545Z,5.22
2022-11-20T22:06:27.469Z,3.65
2022-11-20T22:08:54.360Z,4.50
2022-11-20T22:11:22.506Z,2.00
2022-11-20T22:14:08.046Z,3.67
2022-11-20T22:16:36.652Z,7.43
2022-11-20T22:19:05.282Z,5.38
2022-11-20T22:21:32.946Z,8.07
2022-11-20T22:24:01.128Z,3.40
2022-11-20T22:26:40.033Z,5.50
2022-11-20T22:29:11.576Z,5.38
2022-11-20T22:31:39.597Z,3.00
2022-11-20T22:34:07.285Z,6.43
2022-11-20T22:36:37.604Z,3.70
2022-11-20T22:39:05.750Z,8.43
2022-11-20T22:41:33.649Z,10.98
2022-11-20T22:44:05.696Z,33.70
2022-11-20T22:46:35.788Z,11.15
2022-11-20T22:49:05.827Z,27.98
2022-11-20T22:51:36.509Z,11.93
2022-11-20T22:54:04.100Z,13.25
2022-11-20T22:56:31.215Z,8.55
2022-11-20T22:58:58.339Z,22.83
2022-11-20T23:01:33.581Z,22.58
2022-11-20T23:04:02.596Z,16.88
2022-11-20T23:06:29.996Z,14.80
2022-11-20T23:08:57.099Z,20.73
2022-11-20T23:11:29.572Z,8.48
2022-11-20T23:14:05.085Z,14.60
2022-11-20T23:16:33.773Z,9.80
2022-11-20T23:19:03.855Z,12.77
2022-11-20T23:21:31.134Z,10.48
2022-11-20T23:32:12.837Z,2.38
2022-11-20T23:34:39.783Z,7.07
2022-11-20T23:37:06.624Z,8.75
2022-11-20T23:39:33.568Z,4.32
2022-11-20T23:42:00.503Z,9.00
2022-11-20T23:44:27.765Z,10.23
2022-11-20T23:46:54.848Z,15.00
2022-11-20T23:49:21.737Z,5.30
2022-11-20T23:51:48.627Z,19.63
2022-11-20T23:54:15.540Z,15.60
2022-11-20T23:56:42.387Z,6.75
2022-11-20T23:59:09.323Z,13.63
